Dycusburg, KY (42037)

4:50 AM CDT on May 30, 2015 (GMT -0500)
Calvert City | | Change Station
CLOSE
Current Station
Personal Weather Station
Location: Calvert City, KY
Elevation: 364 ft
Nearby Weather Stations

Elev 364 ft 37.02 °N, 88.33 °W | Updated 10 seconds ago

Mostly Cloudy
Mostly Cloudy
72.9 °F
Feels Like 71 °F
N
2.2
Wind Variable Wind from SE
Gusts 5.4 mph

Today
High -- | Low -- °F
--% Chance of Precip.
Yesterday
High -- | Low -- °F
Precip. -- in
5:35 AM 8:05 PM
Waxing Gibbous, 89% visible
Pressure 30.00 in
Visibility 10.0 miles
Clouds Scattered Clouds 12000 ft
Heat Index 71 °F
Dew Point 69 °F
Humidity 87%
Rainfall 0.02 in
Snow Depth Not available.
UV 0 out of 12
Pollen 7.50 out of 12
Air Quality Not available.
Flu Activity No Activity
METAR K5M9 300935Z AUTO 16004KT 10SM SCT120 22/20 A3000 RMK AO2 T02150196

More Conditions Fewer Conditions

Pressure 30.00 in
Visibility 10.0 miles
Clouds Scattered Clouds 12000 ft
Heat Index 71 °F
Dew Point 69 °F
Humidity 87%
Rainfall 0.02 in
Snow Depth Not available.
UV 0 out of 12
Pollen 7.50 out of 12
Air Quality Not available.
Flu Activity No Activity
METAR K5M9 300935Z AUTO 16004KT 10SM SCT120 22/20 A3000 RMK AO2 T02150196

More Conditions Fewer Conditions

10-Day Weather Forecast

Almanac

Astronomy

May. 30, 2015 Rise Set
Actual Time
Civil Twilight
Nautical Twilight
Astronomical Twilight
Moon
Length of Visible Light
Length of Day
Tomorrow will be .
, % of the Moon is Illuminated

Today's Extremes

State Highs State Lows

Community

WunderPhotos

Upload Photos

1,825,476 photos uploaded!

WunderBlogs® & News

Nearby

Air Quality

  Air Quality AQ Index Pollutant
Not available.

Snow Depth

Station Depth Elevation

Earthquake Activity

City Distance Mag. Time & Date
Minimum magnitude displayed is 2.5.

Coastal Water Temperatures

Place Temperature

Stations

Nearby Weather Stations

Station Location Temp. Windchill Dew Point Humidity Wind Precip. Elev Updated Type